Time;durP1;ratioP1;P1;durP2;ratioP2;P2;SDS_P1;SDS_P2;PMS_P1;PMS_P2;Temp;Humidity;BMP_temperature;BMP_pressure;BME280_temperature;BME280_humidity;BME280_pressure;Samples;Min_cycle;Max_cycle;Signal;HPM_P1;HPM_P2
2021/04/09 00:00:35;;;;;;;26.77;12.33;;;;;;;;;;5050028;28;20075;-80
2021/04/09 00:03:00;;;;;;;23.07;12.60;;;;;;;;;;5050615;28;20099;-80
2021/04/09 00:05:25;;;;;;;24.53;12.83;;;;;;;;;;5050070;28;20055;-80
2021/04/09 00:07:50;;;;;;;24.80;12.30;;;;;;;;;;5050296;28;20082;-80
2021/04/09 00:10:20;;;;;;;25.60;11.93;;;;;;;;;;5050384;28;20029;-80
2021/04/09 00:12:46;;;;;;;23.70;12.40;;;;;;;;;;5050057;28;20037;-80
2021/04/09 00:15:11;;;;;;;32.60;12.90;;;;;;;;;;5050166;28;20499;-80
2021/04/09 00:17:37;;;;;;;22.27;12.33;;;;;;;;;;5050575;28;20538;-80
2021/04/09 00:20:03;;;;;;;24.20;11.67;;;;;;;;;;5051753;28;20083;-80
2021/04/09 00:22:28;;;;;;;27.33;12.53;;;;;;;;;;5049400;28;20473;-80
2021/04/09 00:24:53;;;;;;;25.07;11.50;;;;;;;;;;5036602;28;20020;-80
2021/04/09 00:27:18;;;;;;;23.87;11.37;;;;;;;;;;5050402;28;20071;-80
2021/04/09 00:29:44;;;;;;;23.57;11.70;;;;;;;;;;5049538;28;20031;-80
2021/04/09 00:32:10;;;;;;;22.07;11.43;;;;;;;;;;5051344;28;20021;-80
2021/04/09 00:34:35;;;;;;;20.90;11.00;;;;;;;;;;5050923;28;20025;-81
2021/04/09 00:37:00;;;;;;;22.07;10.07;;;;;;;;;;5049815;28;20053;-80
2021/04/09 00:39:25;;;;;;;24.13;10.83;;;;;;;;;;5050075;28;20493;-80
2021/04/09 00:41:50;;;;;;;25.50;10.77;;;;;;;;;;5050314;28;20014;-80
2021/04/09 00:44:15;;;;;;;26.70;11.37;;;;;;;;;;5050069;28;20025;-80
2021/04/09 00:46:41;;;;;;;24.67;10.70;;;;;;;;;;5050921;28;20087;-80
2021/04/09 00:49:06;;;;;;;23.03;9.90;;;;;;;;;;5050263;28;20463;-80
2021/04/09 00:51:32;;;;;;;19.27;10.87;;;;;;;;;;5052868;28;20472;-80
2021/04/09 00:53:58;;;;;;;22.87;10.53;;;;;;;;;;5054476;28;20036;-80
2021/04/09 00:56:25;;;;;;;30.13;10.63;;;;;;;;;;5053186;28;20063;-80
2021/04/09 00:58:50;;;;;;;23.80;10.97;;;;;;;;;;5054663;28;20036;-80
2021/04/09 01:01:15;;;;;;;26.73;10.90;;;;;;;;;;5053429;28;20021;-80
2021/04/09 01:03:41;;;;;;;18.30;9.87;;;;;;;;;;5053321;28;20040;-80
2021/04/09 01:06:06;;;;;;;21.67;10.90;;;;;;;;;;5054240;28;20460;-80
2021/04/09 01:08:31;;;;;;;19.97;10.00;;;;;;;;;;5053549;28;20178;-80
2021/04/09 01:10:57;;;;;;;21.93;9.30;;;;;;;;;;5053112;28;20032;-80
2021/04/09 01:13:22;;;;;;;17.97;9.30;;;;;;;;;;5053230;28;20037;-80
2021/04/09 01:15:48;;;;;;;30.90;9.63;;;;;;;;;;5064119;28;20036;-80
2021/04/09 01:18:20;;;;;;;19.13;8.77;;;;;;;;;;5054697;28;20013;-80
2021/04/09 01:21:04;;;;;;;21.10;9.10;;;;;;;;;;5054357;28;20086;-80
2021/04/09 01:24:01;;;;;;;16.73;9.53;;;;;;;;;;5053000;28;20380;-80
2021/04/09 01:26:33;;;;;;;19.30;9.10;;;;;;;;;;5070381;28;20403;-80
2021/04/09 01:28:58;;;;;;;21.77;9.10;;;;;;;;;;5053034;28;20048;-80
2021/04/09 01:31:35;;;;;;;17.75;8.80;;;;;;;;;;5069469;28;20024;-79
2021/04/09 01:34:01;;;;;;;19.17;8.70;;;;;;;;;;5069489;28;20147;-80
2021/04/09 01:36:34;;;;;;;22.50;8.50;;;;;;;;;;5059837;28;20104;-80
2021/04/09 01:39:28;;;;;;;19.43;8.73;;;;;;;;;;5069715;28;20017;-80
2021/04/09 01:41:54;;;;;;;17.13;8.53;;;;;;;;;;5081175;28;20524;-79
2021/04/09 01:44:22;;;;;;;18.40;8.67;;;;;;;;;;5053897;28;20059;-80
2021/04/09 01:46:49;;;;;;;16.50;8.30;;;;;;;;;;5052733;28;20024;-80
2021/04/09 01:49:15;;;;;;;20.43;8.23;;;;;;;;;;5052415;28;20068;-80
2021/04/09 01:51:43;;;;;;;25.20;9.70;;;;;;;;;;5051978;28;20545;-80
2021/04/09 01:54:10;;;;;;;18.63;8.03;;;;;;;;;;5053690;28;20028;-80
2021/04/09 01:56:35;;;;;;;25.27;8.13;;;;;;;;;;5052081;28;20868;-80
2021/04/09 01:59:00;;;;;;;20.00;8.63;;;;;;;;;;5053613;28;20039;-80
2021/04/09 02:01:26;;;;;;;18.57;8.30;;;;;;;;;;5051723;28;20021;-80
2021/04/09 02:03:53;;;;;;;28.57;9.47;;;;;;;;;;5053598;28;20039;-80
2021/04/09 02:06:18;;;;;;;21.23;8.73;;;;;;;;;;5052063;28;20036;-80
2021/04/09 02:08:44;;;;;;;18.97;8.37;;;;;;;;;;5068659;28;20029;-80
2021/04/09 02:11:09;;;;;;;16.57;7.40;;;;;;;;;;5068610;28;20116;-80
2021/04/09 02:13:36;;;;;;;16.63;8.67;;;;;;;;;;5068375;28;20116;-80
2021/04/09 02:16:01;;;;;;;19.87;8.53;;;;;;;;;;5052767;28;20456;-80
2021/04/09 02:18:27;;;;;;;14.13;7.63;;;;;;;;;;5052024;28;20042;-80
2021/04/09 02:20:52;;;;;;;19.87;8.50;;;;;;;;;;5068419;28;20021;-80
2021/04/09 02:23:18;;;;;;;17.70;8.63;;;;;;;;;;5052164;28;20021;-80
2021/04/09 02:25:43;;;;;;;30.13;8.53;;;;;;;;;;5067365;28;20036;-80
2021/04/09 02:28:09;;;;;;;20.63;7.97;;;;;;;;;;5046515;28;20025;-80
2021/04/09 02:30:34;;;;;;;20.53;8.80;;;;;;;;;;5067416;28;20036;-80
2021/04/09 02:32:59;;;;;;;17.70;7.77;;;;;;;;;;5053327;28;20028;-80
2021/04/09 02:35:25;;;;;;;23.77;8.97;;;;;;;;;;5052197;28;20329;-80
2021/04/09 02:37:51;;;;;;;16.00;7.87;;;;;;;;;;5051415;28;20112;-80
2021/04/09 02:40:17;;;;;;;14.00;8.07;;;;;;;;;;5052718;28;20416;-80
2021/04/09 02:42:50;;;;;;;18.90;8.47;;;;;;;;;;5051732;28;20021;-80
2021/04/09 02:45:16;;;;;;;16.87;8.13;;;;;;;;;;5052670;28;20047;-80
2021/04/09 02:47:42;;;;;;;20.37;8.63;;;;;;;;;;5052464;28;20043;-80
2021/04/09 02:50:29;;;;;;;18.70;8.00;;;;;;;;;;5051234;28;20032;-81
2021/04/09 02:52:57;;;;;;;20.23;8.27;;;;;;;;;;5052560;28;20069;-80
2021/04/09 02:55:23;;;;;;;17.47;8.67;;;;;;;;;;5078837;28;20083;-80
2021/04/09 02:57:49;;;;;;;18.90;8.10;;;;;;;;;;5051429;28;20064;-80
2021/04/09 03:00:14;;;;;;;19.27;8.43;;;;;;;;;;5051480;28;20048;-80
2021/04/09 03:02:39;;;;;;;16.77;7.83;;;;;;;;;;5052363;28;20047;-80
2021/04/09 03:05:06;;;;;;;20.20;8.17;;;;;;;;;;5052624;28;20099;-80
2021/04/09 03:07:31;;;;;;;22.30;7.83;;;;;;;;;;5050772;28;20094;-80
2021/04/09 03:09:58;;;;;;;17.83;7.90;;;;;;;;;;5051156;28;20032;-80
2021/04/09 03:12:23;;;;;;;18.80;7.93;;;;;;;;;;5056906;28;20086;-80
2021/04/09 03:14:49;;;;;;;22.73;7.80;;;;;;;;;;5050907;28;20020;-80
2021/04/09 03:17:35;;;;;;;19.20;8.53;;;;;;;;;;5050231;28;20021;-80
2021/04/09 03:20:00;;;;;;;18.97;8.00;;;;;;;;;;5026767;28;20365;-80
2021/04/09 03:22:25;;;;;;;16.33;8.17;;;;;;;;;;5050995;28;20028;-80
2021/04/09 03:24:50;;;;;;;19.30;7.40;;;;;;;;;;5050837;28;20025;-80
2021/04/09 03:27:15;;;;;;;18.97;7.83;;;;;;;;;;5050608;28;20460;-80
2021/04/09 03:29:44;;;;;;;17.57;7.77;;;;;;;;;;5050659;28;20032;-80
2021/04/09 03:32:11;;;;;;;17.63;7.93;;;;;;;;;;5051061;28;20488;-80
2021/04/09 03:34:37;;;;;;;19.83;7.80;;;;;;;;;;5052251;28;20108;-80
2021/04/09 03:37:02;;;;;;;19.87;8.37;;;;;;;;;;5050452;28;20512;-80
2021/04/09 03:39:27;;;;;;;21.17;8.27;;;;;;;;;;5050770;28;20017;-80
2021/04/09 03:41:52;;;;;;;20.90;8.00;;;;;;;;;;5050631;28;20071;-81
2021/04/09 03:44:17;;;;;;;22.20;7.67;;;;;;;;;;5052329;28;20380;-80
2021/04/09 03:46:43;;;;;;;19.37;7.77;;;;;;;;;;5050453;28;20484;-80
2021/04/09 03:49:08;;;;;;;20.70;7.57;;;;;;;;;;5052163;28;20067;-81
2021/04/09 03:51:34;;;;;;;18.00;7.93;;;;;;;;;;5050466;28;20013;-81
2021/04/09 03:53:59;;;;;;;21.33;7.80;;;;;;;;;;5050560;28;20457;-80
2021/04/09 03:56:25;;;;;;;18.93;7.60;;;;;;;;;;5050447;28;20024;-80
2021/04/09 03:58:50;;;;;;;24.67;8.00;;;;;;;;;;5067389;28;20078;-80
2021/04/09 04:01:15;;;;;;;15.40;8.10;;;;;;;;;;5050509;28;20021;-80
2021/04/09 04:03:41;;;;;;;19.10;7.43;;;;;;;;;;5050273;28;20121;-80
2021/04/09 04:06:06;;;;;;;14.40;7.47;;;;;;;;;;5050574;28;20155;-80
2021/04/09 04:08:31;;;;;;;15.77;7.37;;;;;;;;;;5050656;28;20519;-80
2021/04/09 04:10:56;;;;;;;18.10;7.53;;;;;;;;;;5051823;28;20551;-81
2021/04/09 04:13:22;;;;;;;18.60;8.47;;;;;;;;;;5050352;28;20029;-80
2021/04/09 04:15:48;;;;;;;20.50;7.60;;;;;;;;;;5049744;28;20071;-81
2021/04/09 04:18:13;;;;;;;20.23;8.20;;;;;;;;;;5051912;28;20036;-80
2021/04/09 04:20:38;;;;;;;18.33;7.83;;;;;;;;;;5050132;28;20099;-80
2021/04/09 04:23:03;;;;;;;20.40;7.63;;;;;;;;;;5051740;28;20025;-80
2021/04/09 04:25:28;;;;;;;15.23;7.50;;;;;;;;;;5053619;28;20029;-80
2021/04/09 04:27:54;;;;;;;18.00;8.03;;;;;;;;;;5053786;28;20048;-80
2021/04/09 04:30:19;;;;;;;21.60;7.70;;;;;;;;;;5054111;28;20023;-80
2021/04/09 04:32:44;;;;;;;19.73;7.33;;;;;;;;;;5055395;28;20079;-80
2021/04/09 04:35:10;;;;;;;18.80;7.30;;;;;;;;;;5053879;28;20155;-80
2021/04/09 04:37:35;;;;;;;22.57;8.70;;;;;;;;;;5053812;28;20062;-80
2021/04/09 04:40:00;;;;;;;26.87;7.70;;;;;;;;;;5053865;28;20013;-80
2021/04/09 04:42:25;;;;;;;21.63;8.33;;;;;;;;;;5054242;28;20051;-80
2021/04/09 04:44:50;;;;;;;20.67;7.47;;;;;;;;;;5053794;28;20147;-80
2021/04/09 04:47:16;;;;;;;16.07;6.97;;;;;;;;;;5055237;28;20016;-80
2021/04/09 04:49:41;;;;;;;17.40;7.70;;;;;;;;;;5053967;28;20033;-80
2021/04/09 04:52:06;;;;;;;14.47;6.87;;;;;;;;;;5053152;28;20025;-81
2021/04/09 04:54:31;;;;;;;23.00;7.83;;;;;;;;;;5053674;28;20415;-81
2021/04/09 04:56:56;;;;;;;16.83;7.27;;;;;;;;;;5053615;28;20017;-81
2021/04/09 04:59:22;;;;;;;16.37;6.90;;;;;;;;;;5053798;28;20013;-80
2021/04/09 05:01:47;;;;;;;21.23;7.13;;;;;;;;;;5053385;28;20080;-80
2021/04/09 05:04:12;;;;;;;21.13;7.27;;;;;;;;;;5054954;28;20384;-81
2021/04/09 05:06:37;;;;;;;12.60;6.50;;;;;;;;;;5053432;28;20113;-80
2021/04/09 05:09:02;;;;;;;18.27;6.83;;;;;;;;;;5070143;28;20009;-80
2021/04/09 05:11:28;;;;;;;19.80;7.07;;;;;;;;;;5053438;28;20108;-81
2021/04/09 05:13:53;;;;;;;18.63;6.77;;;;;;;;;;5054537;28;20430;-80
2021/04/09 05:16:18;;;;;;;14.43;7.70;;;;;;;;;;5052559;28;20028;-80
2021/04/09 05:18:43;;;;;;;27.90;13.33;;;;;;;;;;5053592;28;20457;-80
2021/04/09 05:21:09;;;;;;;35.13;16.03;;;;;;;;;;5052942;28;20021;-80
2021/04/09 05:23:34;;;;;;;34.57;15.50;;;;;;;;;;5053307;28;20721;-80
2021/04/09 05:25:59;;;;;;;25.83;12.27;;;;;;;;;;5054273;28;20132;-81
2021/04/09 05:28:24;;;;;;;24.13;10.03;;;;;;;;;;5053298;28;20028;-80
2021/04/09 05:30:49;;;;;;;20.93;9.53;;;;;;;;;;5052485;28;20470;-80
2021/04/09 05:33:15;;;;;;;23.57;9.33;;;;;;;;;;5053093;28;20047;-80
2021/04/09 05:35:40;;;;;;;21.33;8.53;;;;;;;;;;5053255;28;20112;-80
2021/04/09 05:38:05;;;;;;;22.53;8.77;;;;;;;;;;5052913;28;20432;-80
2021/04/09 05:40:30;;;;;;;21.67;8.80;;;;;;;;;;5052807;28;20044;-80
2021/04/09 05:42:57;;;;;;;23.80;8.30;;;;;;;;;;5052700;28;20013;-80
2021/04/09 05:45:22;;;;;;;16.30;7.13;;;;;;;;;;5053575;28;20021;-80
2021/04/09 05:47:47;;;;;;;19.27;8.17;;;;;;;;;;5052802;28;20037;-80
2021/04/09 05:50:13;;;;;;;16.30;7.10;;;;;;;;;;5052457;28;20021;-80
2021/04/09 05:52:38;;;;;;;16.03;7.90;;;;;;;;;;5053217;28;20024;-81
2021/04/09 05:55:03;;;;;;;18.97;7.27;;;;;;;;;;5052326;28;20033;-80
2021/04/09 05:57:28;;;;;;;14.43;6.67;;;;;;;;;;5052456;28;20073;-80
2021/04/09 05:59:54;;;;;;;20.17;7.13;;;;;;;;;;5053751;28;20480;-80
2021/04/09 06:02:19;;;;;;;18.87;8.40;;;;;;;;;;5052496;28;20416;-80
2021/04/09 06:04:44;;;;;;;20.97;7.57;;;;;;;;;;5051033;28;20041;-80
2021/04/09 06:07:09;;;;;;;18.53;7.57;;;;;;;;;;5051770;28;20025;-80
2021/04/09 06:09:34;;;;;;;18.03;7.77;;;;;;;;;;5051172;28;20052;-80
2021/04/09 06:12:00;;;;;;;20.70;7.83;;;;;;;;;;5052735;28;20020;-79
2021/04/09 06:14:28;;;;;;;21.73;7.53;;;;;;;;;;5051956;28;20108;-80
2021/04/09 06:16:54;;;;;;;18.23;7.67;;;;;;;;;;5053291;28;20096;-80
2021/04/09 06:19:19;;;;;;;18.50;7.90;;;;;;;;;;5051030;28;20100;-80
2021/04/09 06:21:44;;;;;;;20.57;7.30;;;;;;;;;;5051861;28;20459;-80
2021/04/09 06:24:10;;;;;;;15.87;7.53;;;;;;;;;;5051862;28;20031;-80
2021/04/09 06:26:36;;;;;;;23.57;7.83;;;;;;;;;;5050326;28;20063;-80
2021/04/09 06:29:01;;;;;;;16.03;7.13;;;;;;;;;;5050656;28;20107;-80
2021/04/09 06:31:26;;;;;;;17.60;7.47;;;;;;;;;;5067273;28;20518;-80
2021/04/09 06:33:51;;;;;;;18.20;7.30;;;;;;;;;;5051133;28;20094;-80
2021/04/09 06:36:16;;;;;;;16.43;7.77;;;;;;;;;;5050174;28;20507;-80
2021/04/09 06:38:41;;;;;;;18.60;7.40;;;;;;;;;;5051914;28;20020;-80
2021/04/09 06:41:08;;;;;;;18.03;7.50;;;;;;;;;;5051376;28;20020;-80
2021/04/09 06:43:34;;;;;;;20.77;8.47;;;;;;;;;;5052366;28;20025;-80
2021/04/09 06:45:59;;;;;;;14.03;7.27;;;;;;;;;;5051136;28;20031;-80
2021/04/09 06:48:24;;;;;;;17.77;7.53;;;;;;;;;;5068110;28;20055;-79
2021/04/09 06:50:50;;;;;;;16.30;7.60;;;;;;;;;;5051219;28;20044;-80
2021/04/09 06:53:15;;;;;;;19.97;8.73;;;;;;;;;;5052940;28;20017;-80
2021/04/09 06:55:41;;;;;;;17.43;7.70;;;;;;;;;;5051431;28;20021;-80
2021/04/09 06:58:07;;;;;;;18.73;8.50;;;;;;;;;;5049363;28;20104;-80
2021/04/09 07:00:33;;;;;;;20.43;8.07;;;;;;;;;;5050309;28;20088;-80
2021/04/09 07:02:58;;;;;;;17.83;7.43;;;;;;;;;;5049450;28;20025;-80
2021/04/09 07:05:26;;;;;;;16.47;7.77;;;;;;;;;;5049067;28;20091;-80
2021/04/09 07:07:51;;;;;;;17.20;7.53;;;;;;;;;;5048862;28;20025;-80
2021/04/09 07:10:16;;;;;;;20.00;8.03;;;;;;;;;;5049274;28;20087;-80
2021/04/09 07:12:41;;;;;;;19.33;7.70;;;;;;;;;;5048560;28;20117;-80
2021/04/09 07:15:08;;;;;;;19.60;8.47;;;;;;;;;;5047313;28;20039;-80
2021/04/09 07:17:34;;;;;;;23.83;8.13;;;;;;;;;;5049440;28;20132;-80
2021/04/09 07:20:17;;;;;;;24.47;8.60;;;;;;;;;;5045416;28;20029;-80
2021/04/09 07:22:43;;;;;;;16.55;8.65;;;;;;;;;;5062770;28;20017;-80
2021/04/09 07:25:11;;;;;;;24.17;9.07;;;;;;;;;;5050519;28;20549;-80
2021/04/09 07:27:37;;;;;;;25.83;9.10;;;;;;;;;;5050675;28;20070;-80
2021/04/09 07:30:03;;;;;;;22.43;10.23;;;;;;;;;;5051879;28;20469;-80
2021/04/09 07:32:30;;;;;;;19.83;9.00;;;;;;;;;;5050855;28;20013;-80
2021/04/09 07:35:03;;;;;;;18.57;9.50;;;;;;;;;;5037071;28;20057;-80
2021/04/09 07:37:30;;;;;;;22.43;9.93;;;;;;;;;;5050570;28;20025;-80
2021/04/09 07:39:59;;;;;;;20.47;9.97;;;;;;;;;;5050553;28;20354;-80
2021/04/09 07:42:30;;;;;;;24.13;9.57;;;;;;;;;;5052197;28;20469;-79
2021/04/09 07:44:56;;;;;;;22.33;10.20;;;;;;;;;;5050394;28;20020;-80
2021/04/09 07:47:25;;;;;;;21.23;9.77;;;;;;;;;;5050950;28;20530;-80
2021/04/09 07:49:57;;;;;;;21.33;9.30;;;;;;;;;;5052180;28;20427;-80
2021/04/09 07:52:22;;;;;;;21.30;9.35;;;;;;;;;;5051873;28;20043;-80
2021/04/09 07:54:48;;;;;;;25.97;10.33;;;;;;;;;;5050101;28;20485;-80
2021/04/09 07:57:26;;;;;;;27.67;11.13;;;;;;;;;;5050400;28;20017;-80
2021/04/09 07:59:51;;;;;;;21.00;11.30;;;;;;;;;;5053290;28;20108;-80
2021/04/09 08:02:36;;;;;;;20.57;9.33;;;;;;;;;;5054681;28;20111;-80
2021/04/09 08:05:01;;;;;;;20.57;9.70;;;;;;;;;;5062123;28;20078;-80
2021/04/09 08:07:34;;;;;;;23.03;9.57;;;;;;;;;;5054557;28;20021;-80
2021/04/09 08:09:59;;;;;;;20.40;10.02;;;;;;;;;;5054663;28;20040;-80
2021/04/09 08:12:28;;;;;;;24.70;10.40;;;;;;;;;;5054301;28;20353;-80
2021/04/09 08:14:54;;;;;;;23.60;10.27;;;;;;;;;;5055283;28;20369;-80
2021/04/09 08:17:20;;;;;;;21.03;9.53;;;;;;;;;;5054123;28;20021;-80
2021/04/09 08:19:51;;;;;;;19.50;8.70;;;;;;;;;;5055603;28;20056;-80
2021/04/09 08:22:16;;;;;;;21.00;10.00;;;;;;;;;;5055720;28;20028;-80
2021/04/09 08:24:42;;;;;;;19.70;10.27;;;;;;;;;;5054511;28;20033;-80
2021/04/09 08:27:07;;;;;;;19.17;9.83;;;;;;;;;;5053944;28;20451;-80
2021/04/09 08:29:33;;;;;;;23.53;9.50;;;;;;;;;;5054143;28;20025;-80
2021/04/09 08:32:02;;;;;;;21.60;11.13;;;;;;;;;;5051501;28;20064;-80
2021/04/09 08:34:29;;;;;;;18.80;9.90;;;;;;;;;;5074070;28;20495;-80
2021/04/09 08:36:54;;;;;;;22.10;8.97;;;;;;;;;;5053352;28;20028;-80
2021/04/09 08:39:19;;;;;;;21.53;8.83;;;;;;;;;;5053895;28;20021;-80
2021/04/09 08:41:48;;;;;;;22.97;9.73;;;;;;;;;;5053260;28;20559;-80
2021/04/09 08:44:13;;;;;;;25.60;9.27;;;;;;;;;;5053492;28;20017;-80
2021/04/09 08:46:39;;;;;;;19.00;9.27;;;;;;;;;;5053737;28;20464;-80
2021/04/09 08:49:04;;;;;;;22.50;9.10;;;;;;;;;;5053358;28;20020;-80
2021/04/09 08:51:30;;;;;;;22.67;8.43;;;;;;;;;;5052491;28;20020;-80
2021/04/09 08:54:15;;;;;;;22.80;8.20;;;;;;;;;;5054825;28;20032;-80
2021/04/09 08:56:40;;;;;;;19.17;8.77;;;;;;;;;;5054360;28;20507;-80
2021/04/09 08:59:05;;;;;;;16.83;7.97;;;;;;;;;;5053318;28;20025;-80
2021/04/09 09:01:31;;;;;;;16.17;8.40;;;;;;;;;;5052437;28;20013;-80
2021/04/09 09:04:14;;;;;;;17.07;7.73;;;;;;;;;;5054297;28;20415;-80
2021/04/09 09:06:43;;;;;;;17.73;8.37;;;;;;;;;;5053522;28;20025;-80
2021/04/09 09:09:08;;;;;;;18.33;9.03;;;;;;;;;;5053595;28;20017;-80
2021/04/09 09:11:51;;;;;;;18.35;8.77;;;;;;;;;;5052817;28;20028;-80
2021/04/09 09:14:34;;;;;;;17.30;8.90;;;;;;;;;;5052654;28;20059;-80
2021/04/09 09:17:18;;;;;;;17.87;8.33;;;;;;;;;;5059614;28;20017;-80
2021/04/09 09:20:03;;;;;;;15.07;8.17;;;;;;;;;;5067936;28;20017;-80
2021/04/09 09:22:40;;;;;;;16.63;7.57;;;;;;;;;;5042035;28;20195;-80
2021/04/09 09:25:06;;;;;;;17.97;7.83;;;;;;;;;;5054263;28;20104;-80
2021/04/09 09:27:47;;;;;;;16.37;7.70;;;;;;;;;;5052888;28;20057;-80
2021/04/09 09:30:28;;;;;;;21.43;9.33;;;;;;;;;;5043762;28;20027;-80
2021/04/09 09:33:12;;;;;;;19.73;8.90;;;;;;;;;;5052539;28;20021;-80
2021/04/09 09:35:53;;;;;;;18.63;8.50;;;;;;;;;;5052349;28;20021;-80
2021/04/09 09:38:37;;;;;;;16.17;7.37;;;;;;;;;;5068775;28;20021;-80
2021/04/09 09:41:02;;;;;;;13.50;6.70;;;;;;;;;;5053337;28;20032;-80
2021/04/09 09:43:31;;;;;;;15.63;7.20;;;;;;;;;;5052507;28;20071;-80
2021/04/09 09:45:56;;;;;;;19.07;7.10;;;;;;;;;;5053531;28;20047;-80
2021/04/09 09:48:22;;;;;;;21.67;7.70;;;;;;;;;;5052670;28;20021;-80
2021/04/09 09:50:47;;;;;;;14.98;7.18;;;;;;;;;;5052663;28;20044;-80
2021/04/09 09:53:12;;;;;;;13.80;6.68;;;;;;;;;;5053906;28;20053;-80
2021/04/09 09:55:37;;;;;;;15.05;7.03;;;;;;;;;;5052163;28;20025;-80
2021/04/09 09:58:16;;;;;;;15.02;6.30;;;;;;;;;;5052590;28;20013;-79
2021/04/09 10:00:50;;;;;;;18.67;7.20;;;;;;;;;;5052429;28;20384;-80
2021/04/09 10:03:19;;;;;;;14.20;7.23;;;;;;;;;;5053756;28;20026;-80
2021/04/09 10:05:55;;;;;;;17.15;7.10;;;;;;;;;;5051820;28;20021;-80
2021/04/09 10:08:21;;;;;;;16.45;7.28;;;;;;;;;;5075696;28;20024;-80
2021/04/09 10:10:46;;;;;;;13.38;6.88;;;;;;;;;;5051568;28;20384;-80
2021/04/09 10:13:15;;;;;;;20.60;7.22;;;;;;;;;;5053476;28;20053;-80
2021/04/09 10:15:40;;;;;;;22.33;7.00;;;;;;;;;;5051657;28;20035;-80
2021/04/09 10:18:06;;;;;;;18.33;6.63;;;;;;;;;;5052231;28;20084;-80
2021/04/09 10:20:31;;;;;;;14.10;6.38;;;;;;;;;;5052600;28;20025;-80
2021/04/09 10:22:56;;;;;;;20.90;7.78;;;;;;;;;;5051507;28;20035;-80
2021/04/09 10:25:31;;;;;;;19.23;6.47;;;;;;;;;;5053153;28;20028;-80
2021/04/09 10:27:57;;;;;;;13.57;6.00;;;;;;;;;;5053398;28;20063;-79
2021/04/09 10:30:29;;;;;;;14.93;6.60;;;;;;;;;;5051990;28;20024;-80
2021/04/09 10:32:54;;;;;;;23.90;7.22;;;;;;;;;;5052095;28;20028;-80
2021/04/09 10:35:20;;;;;;;12.00;6.00;;;;;;;;;;5053005;28;20595;-80
2021/04/09 10:37:45;;;;;;;13.18;6.53;;;;;;;;;;5052572;28;20028;-80
2021/04/09 10:40:10;;;;;;;19.00;7.05;;;;;;;;;;5050960;28;20380;-80
2021/04/09 10:42:36;;;;;;;18.05;6.75;;;;;;;;;;5050660;28;20417;-79
2021/04/09 10:45:15;;;;;;;18.05;6.65;;;;;;;;;;5051246;28;20028;-80
2021/04/09 10:47:40;;;;;;;13.48;6.38;;;;;;;;;;5051666;28;20021;-80
2021/04/09 10:50:05;;;;;;;16.48;7.57;;;;;;;;;;5052554;28;20040;-80
2021/04/09 10:52:32;;;;;;;14.38;6.00;;;;;;;;;;5044290;28;20031;-80
2021/04/09 10:55:01;;;;;;;17.30;6.85;;;;;;;;;;5052173;28;20036;-79
2021/04/09 10:57:26;;;;;;;10.88;6.03;;;;;;;;;;5050462;28;20017;-80
2021/04/09 10:59:51;;;;;;;12.85;5.75;;;;;;;;;;5052017;28;20036;-80
2021/04/09 11:02:26;;;;;;;14.15;6.25;;;;;;;;;;5050590;28;20102;-80
2021/04/09 11:04:51;;;;;;;13.68;6.82;;;;;;;;;;5050986;28;20373;-79
2021/04/09 11:07:16;;;;;;;14.25;6.85;;;;;;;;;;5052109;28;20028;-79
2021/04/09 11:09:49;;;;;;;14.13;5.85;;;;;;;;;;5052493;28;20013;-80
2021/04/09 11:12:14;;;;;;;;;;;;;;;;;;5052218;28;20028;-79
2021/04/09 11:14:39;;;;;;;14.50;6.38;;;;;;;;;;5051199;28;19908;-79
2021/04/09 11:17:04;;;;;;;14.00;6.07;;;;;;;;;;5050857;28;20254;-80
2021/04/09 11:19:34;;;;;;;17.70;6.45;;;;;;;;;;5051813;28;20476;-80
2021/04/09 11:22:01;;;;;;;13.77;6.07;;;;;;;;;;5051833;28;20074;-79
2021/04/09 11:24:30;;;;;;;10.80;5.97;;;;;;;;;;5067127;28;20017;-80
2021/04/09 11:26:55;;;;;;;11.93;5.65;;;;;;;;;;5051954;28;20496;-80
2021/04/09 11:29:24;;;;;;;12.45;5.60;;;;;;;;;;5048780;28;20124;-80
2021/04/09 11:31:50;;;;;;;9.80;4.47;;;;;;;;;;5051459;28;20067;-79
2021/04/09 11:34:16;;;;;;;10.88;5.55;;;;;;;;;;5049843;28;20020;-80
2021/04/09 11:36:47;;;;;;;9.65;5.70;;;;;;;;;;5050412;28;20029;-79
2021/04/09 11:39:16;;;;;;;10.63;5.50;;;;;;;;;;5052300;28;20013;-79
2021/04/09 11:41:43;;;;;;;13.98;5.70;;;;;;;;;;5050590;28;20025;-80
2021/04/09 11:44:27;;;;;;;10.27;5.40;;;;;;;;;;5051624;28;20052;-80
2021/04/09 11:46:53;;;;;;;17.48;4.78;;;;;;;;;;5050497;28;20082;-80
2021/04/09 11:49:26;;;;;;;13.18;5.35;;;;;;;;;;5050455;28;20029;-80
2021/04/09 11:51:58;;;;;;;11.35;5.63;;;;;;;;;;5050193;28;20025;-80
2021/04/09 11:54:29;;;;;;;10.25;5.03;;;;;;;;;;5050741;28;20417;-80
2021/04/09 11:56:55;;;;;;;13.05;5.50;;;;;;;;;;5050481;28;20150;-80
2021/04/09 11:59:21;;;;;;;10.38;5.18;;;;;;;;;;5050890;28;20052;-80
2021/04/09 12:01:49;;;;;;;16.77;5.82;;;;;;;;;;5050900;28;20432;-80
2021/04/09 12:04:33;;;;;;;10.15;5.90;;;;;;;;;;5050565;28;20009;-80
2021/04/09 12:06:59;;;;;;;9.32;5.55;;;;;;;;;;5050199;28;20066;-80
2021/04/09 12:09:24;;;;;;;16.00;5.30;;;;;;;;;;5051822;28;20024;-80
2021/04/09 12:11:49;;;;;;;12.00;5.72;;;;;;;;;;5050358;28;20468;-80
2021/04/09 12:14:30;;;;;;;9.63;5.50;;;;;;;;;;5051666;28;20032;-80
2021/04/09 12:16:55;;;;;;;15.73;6.13;;;;;;;;;;5051042;28;20037;-80
2021/04/09 12:19:20;;;;;;;13.45;6.13;;;;;;;;;;5048559;28;20020;-80
2021/04/09 12:21:45;;;;;;;15.52;6.07;;;;;;;;;;5049430;28;20126;-80
2021/04/09 12:24:11;;;;;;;12.38;4.70;;;;;;;;;;5048839;28;20017;-80
2021/04/09 12:26:36;;;;;;;12.48;5.57;;;;;;;;;;5050339;28;20020;-80
2021/04/09 12:29:01;;;;;;;10.13;4.97;;;;;;;;;;5050202;28;20021;-80
2021/04/09 12:31:26;;;;;;;10.90;5.07;;;;;;;;;;5049183;28;20028;-80
2021/04/09 12:33:51;;;;;;;10.15;4.90;;;;;;;;;;5049636;28;20029;-80
2021/04/09 12:36:17;;;;;;;9.95;5.15;;;;;;;;;;5048346;28;20024;-80
2021/04/09 12:38:42;;;;;;;15.85;6.15;;;;;;;;;;5049961;28;20492;-80
2021/04/09 12:41:07;;;;;;;11.55;5.70;;;;;;;;;;5051512;28;20029;-80
2021/04/09 12:43:33;;;;;;;13.77;5.32;;;;;;;;;;5050463;28;20464;-79
2021/04/09 12:45:58;;;;;;;15.73;5.60;;;;;;;;;;5051288;28;20085;-79
2021/04/09 12:48:23;;;;;;;14.65;5.35;;;;;;;;;;5053613;28;20028;-80
2021/04/09 12:50:49;;;;;;;9.43;5.75;;;;;;;;;;5053898;28;20025;-79
2021/04/09 12:53:14;;;;;;;12.35;5.57;;;;;;;;;;5053845;28;20477;-79
2021/04/09 12:55:39;;;;;;;10.98;5.32;;;;;;;;;;5052803;28;20036;-80
2021/04/09 12:58:04;;;;;;;12.02;5.03;;;;;;;;;;5053646;28;20067;-79
2021/04/09 13:00:29;;;;;;;10.32;5.00;;;;;;;;;;5054348;28;20472;-80
2021/04/09 13:02:55;;;;;;;7.53;4.50;;;;;;;;;;5054531;28;20017;-80
2021/04/09 13:05:20;;;;;;;12.27;5.70;;;;;;;;;;5053813;28;20025;-80
2021/04/09 13:07:45;;;;;;;10.05;5.10;;;;;;;;;;5052623;28;20025;-80
2021/04/09 13:10:11;;;;;;;9.15;4.65;;;;;;;;;;5053225;28;20075;-80
2021/04/09 13:12:36;;;;;;;9.23;4.70;;;;;;;;;;5052867;28;20021;-80
2021/04/09 13:15:01;;;;;;;14.48;4.40;;;;;;;;;;5053241;28;20111;-79
2021/04/09 13:17:26;;;;;;;10.68;4.72;;;;;;;;;;5053256;28;20402;-79
2021/04/09 13:19:51;;;;;;;10.57;4.35;;;;;;;;;;5053006;28;20041;-80
2021/04/09 13:22:17;;;;;;;11.55;4.97;;;;;;;;;;5052775;28;20142;-79
2021/04/09 13:24:42;;;;;;;10.02;4.78;;;;;;;;;;5051682;28;20127;-79
2021/04/09 13:27:14;;;;;;;11.32;4.57;;;;;;;;;;5047822;28;20465;-79
2021/04/09 13:29:39;;;;;;;;;;;;;;;;;;5053191;28;20098;-79
2021/04/09 13:32:05;;;;;;;12.60;5.63;;;;;;;;;;5054164;28;19962;-79
2021/04/09 13:34:30;;;;;;;13.38;6.03;;;;;;;;;;5054468;28;21064;-79
2021/04/09 13:36:55;;;;;;;8.18;5.22;;;;;;;;;;5053766;28;20017;-79
2021/04/09 13:39:20;;;;;;;12.70;5.55;;;;;;;;;;5054214;28;20035;-79
2021/04/09 13:41:45;;;;;;;14.07;5.65;;;;;;;;;;5052512;28;20456;-79
2021/04/09 13:44:11;;;;;;;11.30;5.10;;;;;;;;;;5052953;28;20071;-79
2021/04/09 13:46:36;;;;;;;12.18;5.78;;;;;;;;;;5052256;28;20448;-79
2021/04/09 13:49:01;;;;;;;15.40;5.97;;;;;;;;;;5052378;28;20032;-79
2021/04/09 13:51:26;;;;;;;14.65;5.93;;;;;;;;;;5052175;28;20095;-79
2021/04/09 13:53:51;;;;;;;10.25;5.60;;;;;;;;;;5047840;28;20388;-80
2021/04/09 13:56:16;;;;;;;12.55;6.13;;;;;;;;;;5059023;28;20019;-79
2021/04/09 13:58:42;;;;;;;10.45;5.80;;;;;;;;;;5052493;28;20379;-79
2021/04/09 14:01:07;;;;;;;12.60;6.50;;;;;;;;;;5053595;28;20025;-79
2021/04/09 14:03:32;;;;;;;13.07;6.00;;;;;;;;;;5051489;28;20033;-80
2021/04/09 14:05:58;;;;;;;10.02;6.15;;;;;;;;;;5051735;28;20029;-79
2021/04/09 14:08:23;;;;;;;11.50;5.97;;;;;;;;;;5059499;28;20120;-80
2021/04/09 14:10:48;;;;;;;12.68;6.90;;;;;;;;;;5053097;28;20024;-80
2021/04/09 14:13:13;;;;;;;9.05;5.50;;;;;;;;;;5052243;28;20024;-80
2021/04/09 14:15:39;;;;;;;13.50;6.85;;;;;;;;;;5053124;28;20530;-79
2021/04/09 14:18:04;;;;;;;13.98;5.88;;;;;;;;;;5050254;28;20025;-79
2021/04/09 14:20:30;;;;;;;15.43;6.25;;;;;;;;;;5052014;28;20040;-79
2021/04/09 14:22:55;;;;;;;12.18;6.65;;;;;;;;;;5048019;28;20465;-79
2021/04/09 14:25:20;;;;;;;13.27;7.05;;;;;;;;;;5042736;28;20036;-79
2021/04/09 14:27:46;;;;;;;13.90;6.38;;;;;;;;;;5051373;28;20013;-80